Time;durP1;ratioP1;P1;durP2;ratioP2;P2;SDS_P1;SDS_P2;PMS_P1;PMS_P2;Temp;Humidity;BMP_temperature;BMP_pressure;BME280_temperature;BME280_humidity;BME280_pressure;Samples;Min_cycle;Max_cycle;Signal;HPM_P1;HPM_P2
2022/09/14 00:01:51;;;;;;;6.05;4.05;;;18.40;99.90;;;;;;5027724;28;20419;-67
2022/09/14 00:04:18;;;;;;;6.53;3.75;;;18.20;99.90;;;;;;5028333;28;20129;-66
2022/09/14 00:06:45;;;;;;;6.97;3.58;;;18.20;99.90;;;;;;5026176;28;20030;-67
2022/09/14 00:09:16;;;;;;;5.85;3.13;;;18.10;99.90;;;;;;5029090;28;20033;-67
2022/09/14 00:11:41;;;;;;;9.18;3.75;;;18.00;99.90;;;;;;5025297;28;20366;-66
2022/09/14 00:14:07;;;;;;;7.65;3.65;;;17.90;99.90;;;;;;5027192;28;20501;-66
2022/09/14 00:16:38;;;;;;;6.20;3.10;;;17.80;99.90;;;;;;5025740;28;20041;-67
2022/09/14 00:19:16;;;;;;;7.57;3.40;;;17.80;99.90;;;;;;5023661;28;20029;-67
2022/09/14 00:21:42;;;;;;;5.15;3.65;;;17.90;99.90;;;;;;5027072;28;20053;-67
2022/09/14 00:24:09;;;;;;;5.75;3.00;;;18.00;99.90;;;;;;5030534;28;20076;-67
2022/09/14 00:26:36;;;;;;;4.55;3.40;;;18.00;99.90;;;;;;5029718;28;20061;-67
2022/09/14 00:29:03;;;;;;;9.07;3.15;;;18.10;99.90;;;;;;5030918;28;20060;-67
2022/09/14 00:31:30;;;;;;;6.05;2.92;;;18.20;99.90;;;;;;5030014;28;20045;-67
2022/09/14 00:33:56;;;;;;;3.78;2.78;;;18.30;99.90;;;;;;5031065;28;20045;-67
2022/09/14 00:36:25;;;;;;;5.47;3.00;;;18.40;99.90;;;;;;5028019;28;20379;-66
2022/09/14 00:38:52;;;;;;;6.28;3.72;;;18.40;99.90;;;;;;5030153;28;20112;-66
2022/09/14 00:41:24;;;;;;;5.07;3.50;;;18.20;99.90;;;;;;5012167;28;20841;-66
2022/09/14 00:44:11;;;;;;;4.68;3.30;;;18.00;99.90;;;;;;5030105;28;20040;-67
2022/09/14 00:46:38;;;;;;;6.72;3.70;;;18.00;99.90;;;;;;5029868;28;20057;-66
2022/09/14 00:49:10;;;;;;;5.88;3.25;;;17.60;99.90;;;;;;5030875;28;20036;-67
2022/09/14 00:51:41;;;;;;;9.88;3.75;;;17.50;99.90;;;;;;5030294;28;20037;-66
2022/09/14 00:54:07;;;;;;;7.97;3.53;;;17.50;99.90;;;;;;5029322;28;20056;-68
2022/09/14 00:56:33;;;;;;;8.15;3.72;;;17.70;99.90;;;;;;5027813;28;20034;-67
2022/09/14 00:59:04;;;;;;;5.95;3.10;;;17.90;99.90;;;;;;5028890;28;20025;-66
2022/09/14 01:01:30;;;;;;;5.78;3.47;;;18.10;99.90;;;;;;5029749;28;20042;-67
2022/09/14 01:03:55;;;;;;;10.27;3.55;;;18.20;99.90;;;;;;5029572;28;20108;-66
2022/09/14 01:06:55;;;;;;;5.43;3.33;;;18.20;99.90;;;;;;5030921;28;20030;-67
2022/09/14 01:09:40;;;;;;;9.07;3.53;;;18.20;99.90;;;;;;5018682;28;20513;-67
2022/09/14 01:12:40;;;;;;;4.95;3.58;;;18.00;99.90;;;;;;5029746;28;20120;-66
2022/09/14 01:15:24;;;;;;;7.82;4.38;;;17.80;99.90;;;;;;5029454;28;20045;-66
2022/09/14 01:18:07;;;;;;;8.82;3.88;;;17.80;99.90;;;;;;5028644;28;20025;-66
2022/09/14 01:20:49;;;;;;;6.00;3.78;;;17.70;99.90;;;;;;5028912;28;20465;-66
2022/09/14 01:23:37;;;;;;;7.00;3.50;;;17.80;99.90;;;;;;5028547;28;21007;-68
2022/09/14 01:26:12;;;;;;;6.13;3.50;;;18.00;99.90;;;;;;5029924;28;20083;-67
2022/09/14 01:29:03;;;;;;;4.88;3.53;;;18.20;99.90;;;;;;5021127;28;20072;-66
2022/09/14 01:31:37;;;;;;;5.30;3.75;;;18.40;99.90;;;;;;4993176;28;20045;-66
2022/09/14 01:34:15;;;;;;;9.90;3.60;;;18.60;99.90;;;;;;5028644;28;20091;-66
2022/09/14 01:36:46;;;;;;;9.73;4.13;;;18.60;99.90;;;;;;5028466;28;20060;-67
2022/09/14 01:39:13;;;;;;;5.85;3.47;;;18.60;99.90;;;;;;5031423;28;20538;-67
2022/09/14 01:41:41;;;;;;;6.15;3.67;;;18.60;99.90;;;;;;5027686;28;20045;-66
2022/09/14 01:44:15;;;;;;;8.73;4.00;;;18.70;99.90;;;;;;5029277;28;20176;-67
2022/09/14 01:46:49;;;;;;;10.50;3.83;;;18.70;99.90;;;;;;5027150;28;20025;-65
2022/09/14 01:49:40;;;;;;;7.82;4.20;;;18.80;99.90;;;;;;5030244;28;20037;-67
2022/09/14 01:52:25;;;;;;;7.47;4.40;;;18.80;99.90;;;;;;5022396;28;20053;-66
2022/09/14 01:55:01;;;;;;;11.55;4.05;;;18.90;99.90;;;;;;5027325;28;20029;-66
2022/09/14 01:57:33;;;;;;;7.53;3.53;;;19.00;99.90;;;;;;5029721;28;20026;-66
2022/09/14 02:00:05;;;;;;;6.50;3.90;;;19.10;99.90;;;;;;5028951;28;20123;-68
2022/09/14 02:02:53;;;;;;;9.95;4.20;;;19.10;99.90;;;;;;5029458;28;20065;-67
2022/09/14 02:05:22;;;;;;;6.97;4.20;;;19.20;99.90;;;;;;5027598;28;20087;-66
2022/09/14 02:07:48;;;;;;;5.75;4.00;;;19.40;99.90;;;;;;5028961;28;20101;-67
2022/09/14 02:10:15;;;;;;;6.95;4.22;;;19.10;99.90;;;;;;5029206;28;20120;-66
2022/09/14 02:12:41;;;;;;;22.48;5.35;;;19.00;99.90;;;;;;5028715;28;20409;-66
2022/09/14 02:15:10;;;;;;;12.23;4.93;;;18.80;99.90;;;;;;5023185;28;20129;-64
2022/09/14 02:17:36;;;;;;;16.13;5.65;;;18.60;99.90;;;;;;5028732;28;20092;-66
2022/09/14 02:20:06;;;;;;;14.85;5.13;;;18.40;99.90;;;;;;5025691;28;20022;-65
2022/09/14 02:22:31;;;;;;;7.95;5.43;;;18.30;99.90;;;;;;5024788;28;20021;-65
2022/09/14 02:24:57;;;;;;;7.40;5.22;;;18.20;99.90;;;;;;5030274;28;20033;-65
2022/09/14 02:27:23;;;;;;;9.93;5.97;;;18.10;99.90;;;;;;5024579;28;20432;-65
2022/09/14 02:29:50;;;;;;;10.90;5.50;;;18.10;99.90;;;;;;5023747;28;20115;-65
2022/09/14 02:32:36;;;;;;;12.05;6.07;;;18.00;99.90;;;;;;5023317;28;20064;-66
2022/09/14 02:35:07;;;;;;;10.30;6.20;;;17.90;99.90;;;;;;5019225;28;20076;-64
2022/09/14 02:37:53;;;;;;;10.85;5.93;;;17.90;99.90;;;;;;5023446;28;20116;-64
2022/09/14 02:40:29;;;;;;;9.95;6.50;;;17.80;99.90;;;;;;5023496;28;20490;-66
2022/09/14 02:43:04;;;;;;;8.90;6.43;;;17.80;99.90;;;;;;5028495;28;20505;-64
2022/09/14 02:46:05;;;;;;;9.63;6.50;;;17.70;99.90;;;;;;5024984;28;20034;-64
2022/09/14 02:48:40;;;;;;;11.45;6.32;;;17.60;99.90;;;;;;5027783;28;20055;-65
2022/09/14 02:51:32;;;;;;;11.25;6.78;;;17.60;99.90;;;;;;5029855;28;20061;-65
2022/09/14 02:54:19;;;;;;;13.98;7.60;;;17.60;99.90;;;;;;5027401;28;20041;-64
2022/09/14 02:56:46;;;;;;;15.77;6.70;;;17.60;99.90;;;;;;5019862;28;20052;-64
2022/09/14 02:59:11;;;;;;;11.90;6.20;;;17.60;99.90;;;;;;5028558;28;20033;-64
2022/09/14 03:01:37;;;;;;;12.88;6.70;;;17.60;99.90;;;;;;5025990;28;20052;-64
2022/09/14 03:04:03;;;;;;;10.32;6.82;;;17.60;99.90;;;;;;5026889;28;20489;-64
2022/09/14 03:06:29;;;;;;;10.55;6.85;;;17.50;99.90;;;;;;5028592;28;20030;-65
2022/09/14 03:08:54;;;;;;;10.20;6.38;;;17.50;99.90;;;;;;5026374;28;20041;-65
2022/09/14 03:11:20;;;;;;;14.35;7.90;;;17.50;99.90;;;;;;5029727;28;20116;-64
2022/09/14 03:13:46;;;;;;;17.20;7.75;;;17.50;99.90;;;;;;5027084;28;20061;-63
2022/09/14 03:16:15;;;;;;;14.00;7.13;;;17.50;99.90;;;;;;5025562;28;20030;-65
2022/09/14 03:18:41;;;;;;;17.10;7.45;;;17.50;99.90;;;;;;5028882;28;20080;-65
2022/09/14 03:21:13;;;;;;;12.32;7.88;;;17.40;99.90;;;;;;5026564;28;20484;-64
2022/09/14 03:23:44;;;;;;;13.50;8.30;;;17.40;99.90;;;;;;5022268;28;20040;-64
2022/09/14 03:26:16;;;;;;;12.48;7.47;;;17.40;99.90;;;;;;5028903;28;20022;-65
2022/09/14 03:28:42;;;;;;;13.43;7.65;;;17.40;99.90;;;;;;5028049;28;20450;-64
2022/09/14 03:31:09;;;;;;;11.85;8.15;;;17.40;99.90;;;;;;5027998;28;20410;-64
2022/09/14 03:33:35;;;;;;;12.73;8.65;;;17.30;99.90;;;;;;5027031;28;20068;-64
2022/09/14 03:36:12;;;;;;;14.60;8.38;;;17.30;99.90;;;;;;5027859;28;20021;-65
2022/09/14 03:38:38;;;;;;;16.95;8.48;;;17.40;99.90;;;;;;5026939;28;20081;-65
2022/09/14 03:41:08;;;;;;;12.27;8.15;;;17.40;99.90;;;;;;5028056;28;20025;-64
2022/09/14 03:43:34;;;;;;;14.35;9.30;;;17.40;99.90;;;;;;5026299;28;20105;-65
2022/09/14 03:46:11;;;;;;;13.40;8.68;;;17.40;99.90;;;;;;5029182;28;20664;-65
2022/09/14 03:48:37;;;;;;;214.88;13.00;;;17.40;99.90;;;;;;5026091;28;20486;-65
2022/09/14 03:51:05;;;;;;;18.98;9.45;;;17.40;99.90;;;;;;5023629;28;20119;-65
2022/09/14 03:53:31;;;;;;;12.90;9.50;;;17.30;99.90;;;;;;5023811;28;20044;-65
2022/09/14 03:55:57;;;;;;;16.10;10.10;;;17.30;99.90;;;;;;5027433;28;20044;-65
2022/09/14 03:58:23;;;;;;;15.10;10.32;;;17.40;99.90;;;;;;5021686;28;20033;-66
2022/09/14 04:00:49;;;;;;;16.35;10.25;;;17.40;99.90;;;;;;5020668;28;20091;-65
2022/09/14 04:03:15;;;;;;;15.50;10.30;;;17.40;99.90;;;;;;5028193;28;20042;-64
2022/09/14 04:05:40;;;;;;;12.75;8.57;;;17.40;99.90;;;;;;5032265;28;20033;-65
2022/09/14 04:08:06;;;;;;;16.95;10.60;;;17.40;99.90;;;;;;5029729;28;20465;-66
2022/09/14 04:10:32;;;;;;;17.13;9.85;;;17.40;99.90;;;;;;5030513;28;20371;-66
2022/09/14 04:12:58;;;;;;;17.48;10.95;;;17.40;99.90;;;;;;5030928;28;20116;-66
2022/09/14 04:15:24;;;;;;;13.23;9.43;;;17.40;99.90;;;;;;5030796;28;20078;-68
2022/09/14 04:17:50;;;;;;;13.82;9.90;;;17.40;99.90;;;;;;5024174;28;20405;-69
2022/09/14 04:20:17;;;;;;;17.98;9.65;;;17.50;99.90;;;;;;5029601;28;20072;-66
2022/09/14 04:22:44;;;;;;;14.27;10.15;;;17.50;99.90;;;;;;5031191;28;20736;-66
2022/09/14 04:25:10;;;;;;;13.10;8.60;;;17.50;99.90;;;;;;5032842;28;20033;-68
2022/09/14 04:27:36;;;;;;;13.45;8.75;;;17.40;99.90;;;;;;5028554;28;20021;-66
2022/09/14 04:30:03;;;;;;;14.10;9.07;;;17.40;99.90;;;;;;5026119;28;20026;-65
2022/09/14 04:32:28;;;;;;;14.77;9.20;;;17.40;99.90;;;;;;5025546;28;20124;-65
2022/09/14 04:34:54;;;;;;;12.80;8.65;;;17.40;99.90;;;;;;5029731;28;20166;-66
2022/09/14 04:37:19;;;;;;;13.57;8.15;;;17.40;99.90;;;;;;5027685;28;20026;-68
2022/09/14 04:39:45;;;;;;;17.92;9.32;;;17.40;99.90;;;;;;5030448;28;20037;-68
2022/09/14 04:42:11;;;;;;;14.98;8.65;;;17.50;99.90;;;;;;5031053;28;20410;-68
2022/09/14 04:44:36;;;;;;;13.23;8.85;;;17.50;99.90;;;;;;5020511;28;20044;-66
2022/09/14 04:47:02;;;;;;;13.60;9.13;;;17.50;99.90;;;;;;5028710;28;20060;-67
2022/09/14 04:49:28;;;;;;;11.52;7.97;;;17.50;99.90;;;;;;5028166;28;20039;-69
2022/09/14 04:51:53;;;;;;;15.93;10.05;;;17.60;99.90;;;;;;5025613;28;20283;-68
2022/09/14 04:54:19;;;;;;;14.90;8.95;;;17.50;99.90;;;;;;5028213;28;20536;-68
2022/09/14 04:56:45;;;;;;;15.00;9.38;;;17.50;99.90;;;;;;5029324;28;20079;-67
2022/09/14 04:59:11;;;;;;;14.52;9.52;;;17.50;99.90;;;;;;5028507;28;20021;-67
2022/09/14 05:01:39;;;;;;;16.48;9.43;;;17.50;99.90;;;;;;5030894;28;20033;-67
2022/09/14 05:04:06;;;;;;;14.25;9.65;;;17.50;99.90;;;;;;5030598;28;20034;-67
2022/09/14 05:06:36;;;;;;;15.13;9.50;;;17.50;99.90;;;;;;5027670;28;20049;-68
2022/09/14 05:09:04;;;;;;;12.48;8.90;;;17.60;99.90;;;;;;5030750;28;20030;-67
2022/09/14 05:11:33;;;;;;;12.20;9.20;;;17.60;99.90;;;;;;5027984;28;20072;-68
2022/09/14 05:14:00;;;;;;;13.93;9.70;;;17.60;99.90;;;;;;5028122;28;20635;-69
2022/09/14 05:16:36;;;;;;;14.80;9.30;;;17.60;99.90;;;;;;5030240;28;20033;-70
2022/09/14 05:19:05;;;;;;;16.23;9.05;;;17.60;99.90;;;;;;5028583;28;20025;-69
2022/09/14 05:21:33;;;;;;;15.68;9.52;;;17.60;99.90;;;;;;5025957;28;20030;-70
2022/09/14 05:24:01;;;;;;;16.08;10.05;;;17.60;99.90;;;;;;5024600;28;20029;-70
2022/09/14 05:26:29;;;;;;;13.98;9.48;;;17.60;99.90;;;;;;5026384;28;20028;-70
2022/09/14 05:28:56;;;;;;;13.07;9.13;;;17.70;99.90;;;;;;5027994;28;20545;-70
2022/09/14 05:31:23;;;;;;;11.25;8.45;;;17.70;99.90;;;;;;5028695;28;20049;-67
2022/09/14 05:33:50;;;;;;;12.80;8.88;;;17.70;99.90;;;;;;5028733;28;20549;-68
2022/09/14 05:36:16;;;;;;;14.38;8.70;;;17.80;99.90;;;;;;5030577;28;20045;-68
2022/09/14 05:38:42;;;;;;;163.35;15.20;;;17.80;99.90;;;;;;5028626;28;20029;-70
2022/09/14 05:41:11;;;;;;;72.00;11.25;;;17.80;99.90;;;;;;5026948;28;20042;-69
2022/09/14 05:43:37;;;;;;;16.98;10.20;;;17.70;99.90;;;;;;5028024;28;20030;-66
2022/09/14 05:46:05;;;;;;;17.60;10.10;;;17.70;99.90;;;;;;5028036;28;20123;-69
2022/09/14 05:48:35;;;;;;;91.07;13.25;;;17.80;99.90;;;;;;5028953;28;20034;-69
2022/09/14 05:51:03;;;;;;;17.33;12.02;;;17.70;99.90;;;;;;5028087;28;20061;-68
2022/09/14 05:53:29;;;;;;;20.33;11.45;;;17.60;99.90;;;;;;5031173;28;20041;-68
2022/09/14 05:56:03;;;;;;;17.98;11.73;;;17.50;99.90;;;;;;5029375;28;20877;-70
2022/09/14 05:58:29;;;;;;;47.25;13.05;;;17.60;99.90;;;;;;5030277;28;20462;-69
2022/09/14 06:00:54;;;;;;;16.55;11.18;;;17.50;99.90;;;;;;5024131;28;20048;-70
2022/09/14 06:03:20;;;;;;;16.15;9.95;;;17.60;99.90;;;;;;5028711;28;20049;-68
2022/09/14 06:05:46;;;;;;;13.23;8.18;;;17.60;99.90;;;;;;5028747;28;20029;-69
2022/09/14 06:08:11;;;;;;;12.27;7.50;;;17.70;99.90;;;;;;5026968;28;20505;-67
2022/09/14 06:10:39;;;;;;;14.27;8.50;;;17.90;99.90;;;;;;5026255;28;20092;-67
2022/09/14 06:13:05;;;;;;;13.23;8.18;;;17.90;99.90;;;;;;5043864;28;20033;-67
2022/09/14 06:15:33;;;;;;;15.85;8.95;;;18.00;99.90;;;;;;5026324;28;20036;-66
2022/09/14 06:17:59;;;;;;;19.23;8.93;;;18.00;99.90;;;;;;5022205;28;20516;-67
2022/09/14 06:20:24;;;;;;;15.80;7.50;;;18.00;99.90;;;;;;5023652;28;20033;-69
2022/09/14 06:22:50;;;;;;;13.98;8.50;;;18.10;99.90;;;;;;5025956;28;20030;-68
2022/09/14 06:25:15;;;;;;;13.75;7.80;;;18.10;99.90;;;;;;5019496;28;20391;-67
2022/09/14 06:27:41;;;;;;;12.55;7.47;;;18.10;99.90;;;;;;5023583;28;20059;-69
2022/09/14 06:30:07;;;;;;;12.02;7.35;;;18.10;99.90;;;;;;5026790;28;20159;-66
2022/09/14 06:32:33;;;;;;;13.60;7.60;;;18.20;99.90;;;;;;5027182;28;20057;-67
2022/09/14 06:34:59;;;;;;;15.60;7.45;;;18.20;99.90;;;;;;5024157;28;20466;-67
2022/09/14 06:37:25;;;;;;;14.02;7.55;;;18.20;99.90;;;;;;5024216;28;20392;-67
2022/09/14 06:39:50;;;;;;;12.77;7.40;;;18.30;99.90;;;;;;5026083;28;20029;-67
2022/09/14 06:42:16;;;;;;;13.90;7.55;;;18.40;99.90;;;;;;5025494;28;20125;-66
2022/09/14 06:44:42;;;;;;;12.60;6.97;;;18.40;99.90;;;;;;5027252;28;20045;-66
2022/09/14 06:47:08;;;;;;;9.38;7.25;;;18.50;99.90;;;;;;5028328;28;20057;-68
2022/09/14 06:49:34;;;;;;;11.68;7.55;;;18.50;99.90;;;;;;5028801;28;20629;-68
2022/09/14 06:51:59;;;;;;;13.07;7.18;;;18.70;99.90;;;;;;5024614;28;20040;-67
2022/09/14 06:54:25;;;;;;;12.05;7.15;;;18.70;99.90;;;;;;5024590;28;20037;-67
2022/09/14 06:56:51;;;;;;;13.05;7.15;;;18.80;99.90;;;;;;5025996;28;20029;-68
2022/09/14 06:59:17;;;;;;;13.77;7.57;;;18.80;99.90;;;;;;5028032;28;20040;-68
2022/09/14 07:01:50;;;;;;;11.63;7.72;;;18.80;99.90;;;;;;5029021;28;20044;-72
2022/09/14 07:04:16;;;;;;;13.75;7.85;;;18.90;99.90;;;;;;5026532;28;20067;-67
2022/09/14 07:06:48;;;;;;;15.82;7.65;;;18.80;99.90;;;;;;5026160;28;20451;-68
2022/09/14 07:09:16;;;;;;;13.65;8.10;;;18.80;99.90;;;;;;5026518;28;20033;-67
2022/09/14 07:11:42;;;;;;;13.95;8.25;;;18.80;99.90;;;;;;5023975;28;20064;-68
2022/09/14 07:14:08;;;;;;;12.20;7.30;;;18.90;99.90;;;;;;5027209;28;20041;-69
2022/09/14 07:16:35;;;;;;;17.27;8.75;;;18.90;99.90;;;;;;5026778;28;20425;-68
2022/09/14 07:19:04;;;;;;;10.80;7.07;;;18.90;99.90;;;;;;5025761;28;20025;-71
2022/09/14 07:21:31;;;;;;;11.52;7.88;;;18.90;99.90;;;;;;5023245;28;20029;-68
2022/09/14 07:23:58;;;;;;;12.98;7.45;;;18.90;99.90;;;;;;5027610;28;20036;-67
2022/09/14 07:26:26;;;;;;;18.52;8.60;;;18.90;99.90;;;;;;5026709;28;20386;-68
2022/09/14 07:29:02;;;;;;;13.38;8.20;;;18.90;99.90;;;;;;5024391;28;20026;-69
2022/09/14 07:31:31;;;;;;;12.48;7.97;;;18.90;99.90;;;;;;5027137;28;20081;-67
2022/09/14 07:33:58;;;;;;;14.50;9.05;;;18.90;99.90;;;;;;5024689;28;20041;-69
2022/09/14 07:36:26;;;;;;;12.98;8.18;;;18.90;99.90;;;;;;5024312;28;20025;-70
2022/09/14 07:38:52;;;;;;;14.10;7.78;;;19.00;99.90;;;;;;5027422;28;20496;-66
2022/09/14 07:41:21;;;;;;;11.02;7.15;;;19.00;99.90;;;;;;5025306;28;20042;-67
2022/09/14 07:43:49;;;;;;;13.82;7.00;;;19.00;99.90;;;;;;5027754;28;20045;-68
2022/09/14 07:46:14;;;;;;;12.45;6.47;;;19.00;99.90;;;;;;5029000;28;20037;-69
2022/09/14 07:48:40;;;;;;;13.05;6.25;;;19.10;99.90;;;;;;5026940;28;20079;-69
2022/09/14 07:51:09;;;;;;;10.30;6.70;;;19.20;99.90;;;;;;5024885;28;20103;-69
2022/09/14 07:53:39;;;;;;;9.57;6.00;;;19.20;99.90;;;;;;5020259;28;20128;-69
2022/09/14 07:56:06;;;;;;;11.95;6.38;;;19.30;99.90;;;;;;5025079;28;20244;-69
2022/09/14 07:58:32;;;;;;;13.82;5.97;;;19.50;99.90;;;;;;5027217;28;20042;-66
2022/09/14 08:00:59;;;;;;;15.68;6.18;;;19.60;99.90;;;;;;5024770;28;20037;-65
2022/09/14 08:03:27;;;;;;;8.82;5.97;;;19.60;99.90;;;;;;5024342;28;20061;-66
2022/09/14 08:06:00;;;;;;;14.20;5.57;;;19.70;99.90;;;;;;5024623;28;20041;-68
2022/09/14 08:08:31;;;;;;;10.13;5.95;;;19.80;99.90;;;;;;5028175;28;20029;-68
2022/09/14 08:11:12;;;;;;;12.93;5.70;;;19.90;99.90;;;;;;5026149;28;20438;-68
2022/09/14 08:13:39;;;;;;;13.10;5.70;;;19.90;99.90;;;;;;5023294;28;20034;-66
2022/09/14 08:16:05;;;;;;;9.55;5.07;;;20.10;99.90;;;;;;5028023;28;20033;-71
2022/09/14 08:18:32;;;;;;;12.63;5.72;;;20.20;99.90;;;;;;5028214;28;20083;-67
2022/09/14 08:21:13;;;;;;;7.40;5.80;;;20.40;99.90;;;;;;5024537;28;20052;-69
2022/09/14 08:23:39;;;;;;;11.18;5.88;;;20.60;99.90;;;;;;5026687;28;20039;-69
2022/09/14 08:26:08;;;;;;;8.25;5.30;;;20.80;99.90;;;;;;5026956;28;20030;-67
2022/09/14 08:28:35;;;;;;;10.13;5.07;;;20.90;99.90;;;;;;5026367;28;20036;-69
2022/09/14 08:31:10;;;;;;;9.25;6.10;;;21.00;99.90;;;;;;5024518;28;20037;-69
2022/09/14 08:33:39;;;;;;;10.00;5.72;;;21.10;99.90;;;;;;5027046;28;20056;-67
2022/09/14 08:36:07;;;;;;;11.80;5.60;;;21.10;99.90;;;;;;5024891;28;20061;-66
2022/09/14 08:38:33;;;;;;;8.82;5.40;;;21.10;99.90;;;;;;5024564;28;20458;-68
2022/09/14 08:41:10;;;;;;;9.95;6.03;;;21.10;99.90;;;;;;5024923;28;20112;-68
2022/09/14 08:43:38;;;;;;;13.13;5.88;;;21.00;99.90;;;;;;5030857;28;20041;-69
2022/09/14 08:46:08;;;;;;;12.13;5.95;;;20.90;99.90;;;;;;5029521;28;20481;-66
2022/09/14 08:48:36;;;;;;;;;;;20.90;99.90;;;;;;5029920;28;20037;-67
2022/09/14 08:51:04;;;;;;;13.45;5.80;;;20.80;99.90;;;;;;5028409;28;19913;-70
2022/09/14 08:53:37;;;;;;;10.02;5.28;;;20.80;99.90;;;;;;5032073;28;20043;-65
2022/09/14 08:56:11;;;;;;;15.18;5.82;;;20.70;99.90;;;;;;5030035;28;20032;-70
2022/09/14 08:59:23;;;;;;;11.73;5.70;;;20.70;99.90;;;;;;5030560;28;20029;-69
2022/09/14 09:01:54;;;;;;;13.57;6.13;;;20.70;99.90;;;;;;5025222;28;20108;-70
2022/09/14 09:04:23;;;;;;;13.48;5.47;;;20.70;99.90;;;;;;5030012;28;20044;-68
2022/09/14 09:07:01;;;;;;;11.75;6.38;;;20.70;99.90;;;;;;5028315;28;20029;-72
2022/09/14 09:09:46;;;;;;;11.32;5.70;;;20.80;99.90;;;;;;5030968;28;20025;-68
2022/09/14 09:12:28;;;;;;;8.80;5.40;;;20.80;99.90;;;;;;5020257;28;20098;-69
2022/09/14 09:15:00;;;;;;;9.00;5.97;;;20.70;99.90;;;;;;5028036;28;20033;-72
2022/09/14 09:17:42;;;;;;;13.55;6.05;;;20.80;99.90;;;;;;5024683;28;20026;-68
2022/09/14 09:20:10;;;;;;;12.98;5.60;;;20.70;99.90;;;;;;5028211;28;20663;-68
2022/09/14 09:22:42;;;;;;;7.22;5.22;;;20.80;99.90;;;;;;5027159;28;20044;-69
2022/09/14 09:25:23;;;;;;;14.68;5.88;;;20.90;99.90;;;;;;5029613;28;20041;-66
2022/09/14 09:27:53;;;;;;;12.23;5.22;;;21.00;99.90;;;;;;5030567;28;20053;-69
2022/09/14 09:30:18;;;;;;;8.30;5.80;;;21.30;99.90;;;;;;5028513;28;20048;-69
2022/09/14 09:32:44;;;;;;;12.95;5.45;;;21.50;99.90;;;;;;5027994;28;20918;-71
2022/09/14 09:35:19;;;;;;;7.90;5.15;;;21.80;99.90;;;;;;5020451;28;20033;-69
2022/09/14 09:37:45;;;;;;;12.25;4.88;;;22.00;99.90;;;;;;5031685;28;20036;-69
2022/09/14 09:40:23;;;;;;;8.90;5.07;;;22.20;99.90;;;;;;5023001;28;20647;-67
2022/09/14 09:43:13;;;;;;;13.45;5.03;;;22.30;99.90;;;;;;5027890;28;20525;-65
2022/09/14 09:45:50;;;;;;;13.63;4.85;;;22.30;99.90;;;;;;5029274;28;20057;-66
2022/09/14 09:48:19;;;;;;;8.95;4.93;;;22.40;99.90;;;;;;5027441;28;20037;-71
2022/09/14 09:51:08;;;;;;;9.23;4.28;;;22.50;99.90;;;;;;5027070;28;20135;-67
2022/09/14 09:53:45;;;;;;;10.30;4.60;;;22.70;99.90;;;;;;5029518;28;20060;-66
2022/09/14 09:56:20;;;;;;;10.90;4.80;;;22.90;99.90;;;;;;5027166;28;20302;-68
2022/09/14 09:58:50;;;;;;;8.15;4.93;;;23.10;99.90;;;;;;5027996;28;20068;-65
2022/09/14 10:01:33;;;;;;;10.60;4.78;;;23.10;99.90;;;;;;5025648;28;20337;-67
2022/09/14 10:04:03;;;;;;;7.40;4.35;;;23.10;99.90;;;;;;5026355;28;20045;-68
2022/09/14 10:06:29;;;;;;;7.07;4.40;;;23.10;99.90;;;;;;5029180;28;20029;-68
2022/09/14 10:08:56;;;;;;;14.35;4.75;;;23.10;99.90;;;;;;5030258;28;20034;-72
2022/09/14 10:11:38;;;;;;;9.02;4.57;;;23.20;99.90;;;;;;5029805;28;20033;-70
2022/09/14 10:14:16;;;;;;;9.70;4.30;;;23.40;99.90;;;;;;5027688;28;20029;-67
2022/09/14 10:16:42;;;;;;;10.30;4.10;;;23.70;99.90;;;;;;5026463;28;20188;-66
2022/09/14 10:19:26;;;;;;;9.63;4.47;;;23.80;99.90;;;;;;5028505;28;20159;-68
2022/09/14 10:22:02;;;;;;;7.30;4.05;;;23.90;99.90;;;;;;5024388;28;20030;-68
2022/09/14 10:24:27;;;;;;;8.13;4.45;;;24.10;99.90;;;;;;5011339;28;20034;-68
2022/09/14 10:26:53;;;;;;;9.50;3.70;;;24.20;99.90;;;;;;5013503;28;20037;-69
2022/09/14 10:29:35;;;;;;;9.93;3.80;;;24.20;99.90;;;;;;5028866;28;20022;-63
2022/09/14 10:32:10;;;;;;;8.82;4.00;;;24.30;99.90;;;;;;5028284;28;20525;-64
2022/09/14 10:34:35;;;;;;;9.07;4.40;;;23.80;99.90;;;;;;5029083;28;20048;-62
2022/09/14 10:37:17;;;;;;;11.38;4.97;;;23.60;99.90;;;;;;5021670;28;20462;-66
2022/09/14 10:40:15;;;;;;;9.00;4.05;;;23.50;99.90;;;;;;5023835;28;20466;-64
2022/09/14 10:42:57;;;;;;;15.60;4.53;;;23.40;99.90;;;;;;5025864;28;20036;-63
2022/09/14 10:45:48;;;;;;;10.68;4.28;;;23.50;99.90;;;;;;5023643;28;20026;-66
2022/09/14 10:48:42;;;;;;;8.07;4.18;;;23.50;99.90;;;;;;5017644;28;20556;-64
2022/09/14 10:51:19;;;;;;;6.53;3.80;;;23.60;99.90;;;;;;5023872;28;20143;-63
2022/09/14 10:54:02;;;;;;;9.20;4.97;;;23.70;99.90;;;;;;5025624;28;20033;-65
2022/09/14 10:56:53;;;;;;;5.75;3.85;;;23.70;99.90;;;;;;5026551;28;20513;-65
2022/09/14 10:59:31;;;;;;;8.23;4.10;;;23.60;99.90;;;;;;5025359;28;20125;-64
2022/09/14 11:02:40;;;;;;;11.93;4.13;;;23.50;99.90;;;;;;5026347;28;20033;-67
2022/09/14 11:06:01;;;;;;;9.15;4.30;;;23.50;99.90;;;;;;5024891;28;20033;-64
2022/09/14 11:08:38;;;;;;;9.27;3.95;;;23.70;99.90;;;;;;4959866;28;20027;-64
2022/09/14 11:11:33;;;;;;;10.57;4.63;;;23.80;99.90;;;;;;4950157;28;20050;-65
2022/09/14 11:14:08;;;;;;;8.95;3.88;;;23.80;99.90;;;;;;5008428;28;20056;-67
2022/09/14 11:16:49;;;;;;;8.30;4.07;;;23.70;99.90;;;;;;5014246;28;20037;-64
2022/09/14 11:19:33;;;;;;;;;;;23.80;99.90;;;;;;5025304;28;20045;-66
2022/09/14 11:22:09;;;;;;;7.60;3.80;;;23.80;99.90;;;;;;5022322;28;19935;-65
2022/09/14 11:24:58;;;;;;;8.80;3.83;;;23.80;99.90;;;;;;5025923;28;20057;-66
2022/09/14 11:27:37;;;;;;;10.95;4.63;;;23.70;99.90;;;;;;5026501;28;20026;-64
2022/09/14 11:30:09;;;;;;;6.43;4.00;;;23.70;99.90;;;;;;5026536;28;20033;-63
2022/09/14 11:32:41;;;;;;;9.93;4.13;;;23.70;99.90;;;;;;5024184;28;20505;-64
2022/09/14 11:35:57;;;;;;;11.90;4.00;;;23.70;99.90;;;;;;5027371;28;20036;-65
2022/09/14 11:38:31;;;;;;;7.82;4.07;;;23.80;99.90;;;;;;5024151;28;20558;-64
2022/09/14 11:41:20;;;;;;;8.48;3.65;;;24.00;99.90;;;;;;5024904;28;20404;-64
2022/09/14 11:44:09;;;;;;;8.25;3.83;;;24.10;99.90;;;;;;5019944;28;20064;-64
2022/09/14 11:46:44;;;;;;;9.57;3.58;;;24.20;99.90;;;;;;5015761;28;20030;-65
2022/09/14 11:49:27;;;;;;;6.57;4.32;;;24.20;99.90;;;;;;5026562;28;20501;-63
2022/09/14 11:52:03;;;;;;;9.98;3.75;;;24.30;99.90;;;;;;5013104;28;20486;-64
2022/09/14 11:54:30;;;;;;;8.80;3.45;;;24.40;99.90;;;;;;5028346;28;20033;-64
2022/09/14 11:57:00;;;;;;;7.53;3.45;;;24.50;99.90;;;;;;5028122;28;20029;-65
2022/09/14 11:59:41;;;;;;;8.93;3.53;;;24.50;99.90;;;;;;5028233;28;20053;-63
2022/09/14 12:02:22;;;;;;;9.50;4.00;;;24.50;99.90;;;;;;5026760;28;20084;-63
2022/09/14 12:07:46;;;;;;;6.45;3.08;;;25.00;99.90;;;;;;5026665;28;20068;-64
2022/09/14 12:12:42;;;;;;;5.90;3.35;;;25.00;99.90;;;;;;5027490;28;20051;-64
2022/09/14 12:15:25;;;;;;;7.90;3.70;;;25.10;99.90;;;;;;5026680;28;20040;-63
2022/09/14 12:18:12;;;;;;;6.65;3.53;;;25.30;99.90;;;;;;5028305;28;20459;-63
2022/09/14 12:20:42;;;;;;;10.13;3.80;;;25.20;99.90;;;;;;5032580;28;20478;-64
2022/09/14 12:23:26;;;;;;;8.35;3.20;;;25.20;99.90;;;;;;5030560;28;20076;-62
2022/09/14 12:26:13;;;;;;;6.07;3.22;;;25.40;99.90;;;;;;5032865;28;20032;-64
2022/09/14 12:28:47;;;;;;;6.68;3.15;;;25.30;99.90;;;;;;5030503;28;20029;-64
2022/09/14 12:31:37;;;;;;;5.85;3.40;;;25.10;99.90;;;;;;5028573;28;20532;-64
2022/09/14 12:34:14;;;;;;;9.90;3.47;;;25.10;99.90;;;;;;5006200;28;20743;-67
2022/09/14 12:36:39;;;;;;;12.35;3.90;;;25.10;99.90;;;;;;5030239;28;20044;-65
2022/09/14 12:39:21;;;;;;;8.00;2.85;;;25.10;99.90;;;;;;5029435;28;20029;-66
2022/09/14 12:41:46;;;;;;;5.28;3.38;;;25.00;99.90;;;;;;5031480;28;20034;-63
2022/09/14 12:44:32;;;;;;;8.35;3.42;;;25.00;99.90;;;;;;5028738;28;20044;-65
2022/09/14 12:47:18;;;;;;;5.00;3.30;;;24.90;99.90;;;;;;5025541;28;20113;-62
2022/09/14 12:49:44;;;;;;;5.90;3.17;;;24.70;99.90;;;;;;5031028;28;20037;-66
2022/09/14 12:52:23;;;;;;;6.18;3.22;;;24.50;99.90;;;;;;5027420;28;20041;-63
2022/09/14 12:55:36;;;;;;;12.00;3.22;;;24.50;99.90;;;;;;5024671;28;20033;-64
2022/09/14 12:58:19;;;;;;;5.93;3.38;;;24.40;99.90;;;;;;5017516;28;20046;-64
2022/09/14 13:01:10;;;;;;;5.95;3.15;;;24.60;99.90;;;;;;5028630;28;20059;-64
2022/09/14 13:03:54;;;;;;;;;;;24.70;99.90;;;;;;5026295;28;20030;-64
2022/09/14 13:06:22;;;;;;;8.38;3.20;;;24.70;99.90;;;;;;5029814;28;20426;-66
2022/09/14 13:08:57;;;;;;;9.70;3.20;;;24.50;99.90;;;;;;5030869;28;20099;-67
2022/09/14 13:11:31;;;;;;;9.43;3.65;;;24.50;99.90;;;;;;5030393;28;20236;-64
2022/09/14 13:13:58;;;;;;;8.52;3.30;;;24.50;99.90;;;;;;5030952;28;20144;-65